sensor_id;sensor_type;location;lat;lon;timestamp;pressure;altitude;pressure_sealevel;temperature;humidity
61906;BME280;47863;55.766;37.672;2023-06-24T00:01:50;99199.81;;;18.15;74.01
61906;BME280;47863;55.766;37.672;2023-06-24T00:04:16;99198.34;;;18.12;74.33
61906;BME280;47863;55.766;37.672;2023-06-24T00:06:45;99211.09;;;18.12;74.20
61906;BME280;47863;55.766;37.672;2023-06-24T00:09:10;99201.38;;;18.04;74.34
61906;BME280;47863;55.766;37.672;2023-06-24T00:11:36;99216.63;;;17.98;74.43
61906;BME280;47863;55.766;37.672;2023-06-24T00:14:02;99198.78;;;17.91;74.41
61906;BME280;47863;55.766;37.672;2023-06-24T00:16:28;99206.53;;;17.87;74.56
61906;BME280;47863;55.766;37.672;2023-06-24T00:18:54;99201.75;;;17.82;74.53
61906;BME280;47863;55.766;37.672;2023-06-24T00:21:24;99202.63;;;17.76;74.66
61906;BME280;47863;55.766;37.672;2023-06-24T00:23:59;99210.16;;;17.74;74.69
61906;BME280;47863;55.766;37.672;2023-06-24T00:26:27;99208.13;;;17.70;74.63
61906;BME280;47863;55.766;37.672;2023-06-24T00:28:52;99207.53;;;17.68;74.90
61906;BME280;47863;55.766;37.672;2023-06-24T00:31:19;99207.13;;;17.64;74.54
61906;BME280;47863;55.766;37.672;2023-06-24T00:33:45;99177.50;;;17.44;74.67
61906;BME280;47863;55.766;37.672;2023-06-24T00:36:11;99195.59;;;17.50;74.75
61906;BME280;47863;55.766;37.672;2023-06-24T00:38:38;99173.63;;;17.33;74.56
61906;BME280;47863;55.766;37.672;2023-06-24T00:41:05;99197.47;;;17.50;74.87
61906;BME280;47863;55.766;37.672;2023-06-24T00:43:31;99192.47;;;17.47;74.91
61906;BME280;47863;55.766;37.672;2023-06-24T00:45:57;99178.63;;;17.36;74.85
61906;BME280;47863;55.766;37.672;2023-06-24T00:48:23;99191.66;;;17.46;74.66
61906;BME280;47863;55.766;37.672;2023-06-24T00:50:50;99166.56;;;17.32;74.60
61906;BME280;47863;55.766;37.672;2023-06-24T00:53:17;99190.78;;;17.52;74.63
61906;BME280;47863;55.766;37.672;2023-06-24T00:55:44;99176.03;;;17.48;74.55
61906;BME280;47863;55.766;37.672;2023-06-24T00:58:12;99189.00;;;17.64;74.54
61906;BME280;47863;55.766;37.672;2023-06-24T01:00:45;99192.25;;;17.73;74.37
61906;BME280;47863;55.766;37.672;2023-06-24T01:03:12;99192.81;;;17.82;74.23
61906;BME280;47863;55.766;37.672;2023-06-24T01:05:42;99180.28;;;17.81;73.92
61906;BME280;47863;55.766;37.672;2023-06-24T01:08:08;99183.13;;;17.93;73.82
61906;BME280;47863;55.766;37.672;2023-06-24T01:10:35;99187.22;;;18.02;73.62
61906;BME280;47863;55.766;37.672;2023-06-24T01:13:01;99193.16;;;18.11;73.66
61906;BME280;47863;55.766;37.672;2023-06-24T01:15:26;99191.28;;;18.11;73.79
61906;BME280;47863;55.766;37.672;2023-06-24T01:17:59;99195.63;;;18.12;73.70
61906;BME280;47863;55.766;37.672;2023-06-24T01:20:33;99197.91;;;18.15;73.71
61906;BME280;47863;55.766;37.672;2023-06-24T01:28:33;99192.72;;;18.14;73.45
61906;BME280;47863;55.766;37.672;2023-06-24T01:34:01;99206.25;;;18.14;73.63
61906;BME280;47863;55.766;37.672;2023-06-24T01:36:30;99211.47;;;18.15;73.54
61906;BME280;47863;55.766;37.672;2023-06-24T01:39:02;99207.69;;;18.16;73.55
61906;BME280;47863;55.766;37.672;2023-06-24T01:41:32;99188.50;;;17.99;73.32
61906;BME280;47863;55.766;37.672;2023-06-24T01:43:59;99205.50;;;18.07;73.30
61906;BME280;47863;55.766;37.672;2023-06-24T01:46:28;99190.91;;;17.89;73.17
61906;BME280;47863;55.766;37.672;2023-06-24T01:48:57;99180.16;;;17.76;73.20
61906;BME280;47863;55.766;37.672;2023-06-24T01:51:25;99203.19;;;17.85;73.19
61906;BME280;47863;55.766;37.672;2023-06-24T01:53:54;99217.91;;;17.96;73.24
61906;BME280;47863;55.766;37.672;2023-06-24T01:56:25;99206.31;;;17.89;72.96
61906;BME280;47863;55.766;37.672;2023-06-24T01:58:54;99220.16;;;17.99;72.91
61906;BME280;47863;55.766;37.672;2023-06-24T02:01:22;99217.09;;;17.95;72.67
61906;BME280;47863;55.766;37.672;2023-06-24T02:03:49;99220.78;;;18.01;72.63
61906;BME280;47863;55.766;37.672;2023-06-24T02:06:16;99223.72;;;17.99;72.63
61906;BME280;47863;55.766;37.672;2023-06-24T02:08:43;99213.41;;;17.90;72.85
61906;BME280;47863;55.766;37.672;2023-06-24T02:11:09;99217.41;;;17.80;72.93
61906;BME280;47863;55.766;37.672;2023-06-24T02:13:37;99207.25;;;17.76;72.93
61906;BME280;47863;55.766;37.672;2023-06-24T02:16:06;99205.41;;;17.70;72.98
61906;BME280;47863;55.766;37.672;2023-06-24T02:18:35;99207.28;;;17.69;72.80
61906;BME280;47863;55.766;37.672;2023-06-24T02:21:03;99184.25;;;17.60;72.80
61906;BME280;47863;55.766;37.672;2023-06-24T02:23:29;99204.97;;;17.73;72.52
61906;BME280;47863;55.766;37.672;2023-06-24T02:25:56;99200.41;;;17.73;72.35
61906;BME280;47863;55.766;37.672;2023-06-24T02:28:23;99208.78;;;17.90;72.20
61906;BME280;47863;55.766;37.672;2023-06-24T02:30:50;99208.13;;;17.95;71.98
61906;BME280;47863;55.766;37.672;2023-06-24T02:33:17;99216.72;;;18.10;71.79
61906;BME280;47863;55.766;37.672;2023-06-24T02:35:42;99204.63;;;18.13;71.75
61906;BME280;47863;55.766;37.672;2023-06-24T02:38:10;99212.75;;;18.13;71.75
61906;BME280;47863;55.766;37.672;2023-06-24T02:40:36;99226.66;;;18.16;71.54
61906;BME280;47863;55.766;37.672;2023-06-24T02:43:02;99213.41;;;18.08;71.69
61906;BME280;47863;55.766;37.672;2023-06-24T02:45:27;99213.88;;;18.05;71.70
61906;BME280;47863;55.766;37.672;2023-06-24T02:47:54;99235.25;;;18.13;71.39
61906;BME280;47863;55.766;37.672;2023-06-24T02:50:22;99214.47;;;18.07;71.45
61906;BME280;47863;55.766;37.672;2023-06-24T02:52:49;99228.63;;;18.09;71.63
61906;BME280;47863;55.766;37.672;2023-06-24T02:55:17;99229.88;;;18.07;71.64
61906;BME280;47863;55.766;37.672;2023-06-24T02:57:43;99227.84;;;18.02;71.58
61906;BME280;47863;55.766;37.672;2023-06-24T03:00:10;99226.44;;;17.99;71.83
61906;BME280;47863;55.766;37.672;2023-06-24T03:02:38;99238.69;;;18.02;71.67
61906;BME280;47863;55.766;37.672;2023-06-24T03:05:06;99232.88;;;17.98;71.71
61906;BME280;47863;55.766;37.672;2023-06-24T03:07:31;99226.03;;;17.96;71.66
61906;BME280;47863;55.766;37.672;2023-06-24T03:10:02;99220.44;;;17.91;71.62
61906;BME280;47863;55.766;37.672;2023-06-24T03:12:31;99222.13;;;17.92;71.51
61906;BME280;47863;55.766;37.672;2023-06-24T03:14:57;99236.06;;;17.95;71.77
61906;BME280;47863;55.766;37.672;2023-06-24T03:17:22;99230.41;;;17.97;71.64
61906;BME280;47863;55.766;37.672;2023-06-24T03:19:50;99228.97;;;17.94;71.22
61906;BME280;47863;55.766;37.672;2023-06-24T03:22:16;99240.03;;;17.93;71.64
61906;BME280;47863;55.766;37.672;2023-06-24T03:24:42;99230.28;;;17.85;71.46
61906;BME280;47863;55.766;37.672;2023-06-24T03:27:08;99239.75;;;17.76;71.49
61906;BME280;47863;55.766;37.672;2023-06-24T03:29:34;99237.69;;;17.71;71.68
61906;BME280;47863;55.766;37.672;2023-06-24T03:31:59;99241.22;;;17.72;71.69
61906;BME280;47863;55.766;37.672;2023-06-24T03:34:25;99233.50;;;17.75;71.54
61906;BME280;47863;55.766;37.672;2023-06-24T03:36:55;99207.34;;;17.62;71.47
61906;BME280;47863;55.766;37.672;2023-06-24T03:39:21;99211.47;;;17.65;71.34
61906;BME280;47863;55.766;37.672;2023-06-24T03:41:46;99231.44;;;17.71;71.31
61906;BME280;47863;55.766;37.672;2023-06-24T03:44:12;99240.56;;;17.76;71.38
61906;BME280;47863;55.766;37.672;2023-06-24T03:46:38;99246.59;;;17.78;71.49
61906;BME280;47863;55.766;37.672;2023-06-24T03:49:04;99241.56;;;17.82;71.32
61906;BME280;47863;55.766;37.672;2023-06-24T03:51:30;99248.63;;;17.83;71.12
61906;BME280;47863;55.766;37.672;2023-06-24T03:53:56;99213.81;;;17.61;71.04
61906;BME280;47863;55.766;37.672;2023-06-24T03:56:22;99254.31;;;17.75;71.25
61906;BME280;47863;55.766;37.672;2023-06-24T03:58:48;99235.59;;;17.73;71.33
61906;BME280;47863;55.766;37.672;2023-06-24T04:01:13;99244.47;;;17.80;71.12
61906;BME280;47863;55.766;37.672;2023-06-24T04:03:39;99234.97;;;17.71;70.97
61906;BME280;47863;55.766;37.672;2023-06-24T04:06:05;99255.06;;;17.89;70.97
61906;BME280;47863;55.766;37.672;2023-06-24T04:08:30;99261.69;;;17.93;70.88
61906;BME280;47863;55.766;37.672;2023-06-24T04:10:57;99239.88;;;17.88;70.70
61906;BME280;47863;55.766;37.672;2023-06-24T04:13:25;99249.16;;;17.98;70.58
61906;BME280;47863;55.766;37.672;2023-06-24T04:15:51;99235.88;;;17.90;70.50
61906;BME280;47863;55.766;37.672;2023-06-24T04:18:18;99233.34;;;17.95;70.56
61906;BME280;47863;55.766;37.672;2023-06-24T04:20:44;99267.31;;;18.16;70.41
61906;BME280;47863;55.766;37.672;2023-06-24T04:23:09;99251.13;;;18.10;70.17
61906;BME280;47863;55.766;37.672;2023-06-24T04:25:36;99245.19;;;18.19;70.35
61906;BME280;47863;55.766;37.672;2023-06-24T04:28:03;99266.28;;;18.17;70.18
61906;BME280;47863;55.766;37.672;2023-06-24T04:30:30;99261.53;;;18.13;70.28
61906;BME280;47863;55.766;37.672;2023-06-24T04:32:56;99265.28;;;18.12;70.62
61906;BME280;47863;55.766;37.672;2023-06-24T04:35:21;99244.03;;;18.09;70.23
61906;BME280;47863;55.766;37.672;2023-06-24T04:37:47;99264.25;;;18.31;69.97
61906;BME280;47863;55.766;37.672;2023-06-24T04:40:16;99255.38;;;18.24;69.88
61906;BME280;47863;55.766;37.672;2023-06-24T04:42:42;99239.31;;;18.22;69.93
61906;BME280;47863;55.766;37.672;2023-06-24T04:45:08;99255.31;;;18.31;69.82
61906;BME280;47863;55.766;37.672;2023-06-24T04:47:34;99260.22;;;18.40;69.75
61906;BME280;47863;55.766;37.672;2023-06-24T04:49:59;99271.19;;;18.46;69.58
61906;BME280;47863;55.766;37.672;2023-06-24T04:52:25;99218.09;;;18.19;69.66
61906;BME280;47863;55.766;37.672;2023-06-24T04:54:50;99260.81;;;18.61;69.56
61906;BME280;47863;55.766;37.672;2023-06-24T04:57:30;99270.91;;;18.72;69.38
61906;BME280;47863;55.766;37.672;2023-06-24T04:59:57;99272.56;;;18.73;69.41
61906;BME280;47863;55.766;37.672;2023-06-24T05:02:23;99274.06;;;18.88;69.36
61906;BME280;47863;55.766;37.672;2023-06-24T05:04:49;99248.72;;;18.82;69.08
61906;BME280;47863;55.766;37.672;2023-06-24T05:07:15;99276.31;;;19.09;68.74
61906;BME280;47863;55.766;37.672;2023-06-24T05:09:41;99277.81;;;19.24;68.47
61906;BME280;47863;55.766;37.672;2023-06-24T05:12:08;99271.81;;;19.33;68.79
61906;BME280;47863;55.766;37.672;2023-06-24T05:14:34;99278.00;;;19.52;68.39
61906;BME280;47863;55.766;37.672;2023-06-24T05:17:00;99219.38;;;19.33;68.27
61906;BME280;47863;55.766;37.672;2023-06-24T05:19:26;99257.09;;;19.65;68.01
61906;BME280;47863;55.766;37.672;2023-06-24T05:21:52;99275.72;;;19.79;68.03
61906;BME280;47863;55.766;37.672;2023-06-24T05:24:17;99270.66;;;19.83;67.85
61906;BME280;47863;55.766;37.672;2023-06-24T05:26:45;99271.63;;;20.00;67.49
61906;BME280;47863;55.766;37.672;2023-06-24T05:29:11;99284.00;;;20.08;67.66
61906;BME280;47863;55.766;37.672;2023-06-24T05:31:37;99278.34;;;20.10;67.50
61906;BME280;47863;55.766;37.672;2023-06-24T05:34:03;99282.72;;;19.99;67.53
61906;BME280;47863;55.766;37.672;2023-06-24T05:36:28;99277.88;;;19.89;67.88
61906;BME280;47863;55.766;37.672;2023-06-24T05:38:54;99283.81;;;19.68;68.03
61906;BME280;47863;55.766;37.672;2023-06-24T05:41:20;99279.53;;;19.48;68.09
61906;BME280;47863;55.766;37.672;2023-06-24T05:43:45;99274.75;;;19.32;68.71
61906;BME280;47863;55.766;37.672;2023-06-24T05:46:11;99291.13;;;19.25;68.69
61906;BME280;47863;55.766;37.672;2023-06-24T05:48:37;99291.59;;;19.22;68.48
61906;BME280;47863;55.766;37.672;2023-06-24T05:51:02;99231.94;;;18.85;68.56
61906;BME280;47863;55.766;37.672;2023-06-24T05:53:28;99288.06;;;19.21;68.47
61906;BME280;47863;55.766;37.672;2023-06-24T05:55:54;99269.13;;;19.15;68.33
61906;BME280;47863;55.766;37.672;2023-06-24T05:58:19;99274.50;;;19.21;68.39
61906;BME280;47863;55.766;37.672;2023-06-24T06:00:45;99268.81;;;19.23;68.31
61906;BME280;47863;55.766;37.672;2023-06-24T06:03:11;99261.03;;;19.27;67.93
61906;BME280;47863;55.766;37.672;2023-06-24T06:05:36;99296.78;;;19.54;68.23
61906;BME280;47863;55.766;37.672;2023-06-24T06:08:02;99286.38;;;19.51;67.70
61906;BME280;47863;55.766;37.672;2023-06-24T06:10:28;99297.41;;;19.68;67.65
61906;BME280;47863;55.766;37.672;2023-06-24T06:12:53;99302.09;;;19.79;67.42
61906;BME280;47863;55.766;37.672;2023-06-24T06:15:19;99291.22;;;19.79;67.28
61906;BME280;47863;55.766;37.672;2023-06-24T06:17:46;99290.97;;;19.92;66.87
61906;BME280;47863;55.766;37.672;2023-06-24T06:20:12;99301.19;;;20.09;66.82
61906;BME280;47863;55.766;37.672;2023-06-24T06:22:37;99296.91;;;20.13;66.78
61906;BME280;47863;55.766;37.672;2023-06-24T06:25:07;99286.41;;;20.05;66.27
61906;BME280;47863;55.766;37.672;2023-06-24T06:27:33;99297.13;;;19.99;66.91
61906;BME280;47863;55.766;37.672;2023-06-24T06:29:59;99258.31;;;19.57;66.90
61906;BME280;47863;55.766;37.672;2023-06-24T06:32:24;99307.97;;;19.76;67.18
61906;BME280;47863;55.766;37.672;2023-06-24T06:34:50;99310.91;;;19.74;67.43
61906;BME280;47863;55.766;37.672;2023-06-24T06:37:16;99323.50;;;19.69;67.37
61906;BME280;47863;55.766;37.672;2023-06-24T06:39:41;99319.00;;;19.62;67.48
61906;BME280;47863;55.766;37.672;2023-06-24T06:42:07;99297.34;;;19.44;67.35
61906;BME280;47863;55.766;37.672;2023-06-24T06:44:33;99321.94;;;19.49;67.48
61906;BME280;47863;55.766;37.672;2023-06-24T06:46:58;99319.63;;;19.34;67.80
61906;BME280;47863;55.766;37.672;2023-06-24T06:49:24;99319.25;;;19.31;67.72
61906;BME280;47863;55.766;37.672;2023-06-24T06:51:53;99316.16;;;19.27;67.70
61906;BME280;47863;55.766;37.672;2023-06-24T06:54:19;99317.34;;;19.19;67.85
61906;BME280;47863;55.766;37.672;2023-06-24T06:56:45;99304.28;;;19.10;67.77
61906;BME280;47863;55.766;37.672;2023-06-24T06:59:10;99321.63;;;19.09;67.72
61906;BME280;47863;55.766;37.672;2023-06-24T07:01:36;99307.47;;;18.88;67.77
61906;BME280;47863;55.766;37.672;2023-06-24T07:04:02;99327.91;;;18.91;68.06
61906;BME280;47863;55.766;37.672;2023-06-24T07:06:27;99322.09;;;18.87;68.03
61906;BME280;47863;55.766;37.672;2023-06-24T07:08:53;99326.31;;;18.83;67.75
61906;BME280;47863;55.766;37.672;2023-06-24T07:11:19;99319.28;;;18.75;67.73
61906;BME280;47863;55.766;37.672;2023-06-24T07:13:44;99319.00;;;18.83;67.91
61906;BME280;47863;55.766;37.672;2023-06-24T07:16:11;99315.31;;;18.96;67.47
61906;BME280;47863;55.766;37.672;2023-06-24T07:18:37;99315.16;;;19.10;67.45
61906;BME280;47863;55.766;37.672;2023-06-24T07:21:02;99326.78;;;19.29;67.18
61906;BME280;47863;55.766;37.672;2023-06-24T07:23:28;99336.88;;;19.40;67.01
61906;BME280;47863;55.766;37.672;2023-06-24T07:25:54;99301.91;;;19.32;66.74
61906;BME280;47863;55.766;37.672;2023-06-24T07:28:19;99308.94;;;19.51;66.58
61906;BME280;47863;55.766;37.672;2023-06-24T07:30:45;99324.13;;;19.71;66.70
61906;BME280;47863;55.766;37.672;2023-06-24T07:33:11;99317.66;;;19.72;66.41
61906;BME280;47863;55.766;37.672;2023-06-24T07:35:36;99330.81;;;19.87;66.49
61906;BME280;47863;55.766;37.672;2023-06-24T07:38:02;99293.47;;;19.52;66.59
61906;BME280;47863;55.766;37.672;2023-06-24T07:40:27;99315.97;;;19.71;66.34
61906;BME280;47863;55.766;37.672;2023-06-24T07:42:53;99336.69;;;19.84;66.44
61906;BME280;47863;55.766;37.672;2023-06-24T07:45:19;99332.31;;;19.83;66.34
61906;BME280;47863;55.766;37.672;2023-06-24T07:47:45;99342.63;;;19.92;66.35
61906;BME280;47863;55.766;37.672;2023-06-24T07:50:10;99351.38;;;19.94;66.37
61906;BME280;47863;55.766;37.672;2023-06-24T07:52:37;99348.78;;;19.99;66.35
61906;BME280;47863;55.766;37.672;2023-06-24T07:55:03;99346.66;;;20.01;66.17
61906;BME280;47863;55.766;37.672;2023-06-24T07:57:30;99353.78;;;20.03;66.01
61906;BME280;47863;55.766;37.672;2023-06-24T07:59:56;99358.84;;;19.99;66.05
61906;BME280;47863;55.766;37.672;2023-06-24T08:02:21;99353.84;;;19.96;66.33
61906;BME280;47863;55.766;37.672;2023-06-24T08:04:50;99363.44;;;19.87;66.38
61906;BME280;47863;55.766;37.672;2023-06-24T08:07:16;99351.22;;;19.77;66.31
61906;BME280;47863;55.766;37.672;2023-06-24T08:09:42;99347.53;;;19.72;66.59
61906;BME280;47863;55.766;37.672;2023-06-24T08:12:08;99347.38;;;19.67;66.53
61906;BME280;47863;55.766;37.672;2023-06-24T08:14:33;99373.88;;;19.71;66.49
61906;BME280;47863;55.766;37.672;2023-06-24T08:17:00;99367.91;;;19.62;66.46
61906;BME280;47863;55.766;37.672;2023-06-24T08:19:26;99378.66;;;19.57;66.65
61906;BME280;47863;55.766;37.672;2023-06-24T08:21:51;99371.44;;;19.51;66.68
61906;BME280;47863;55.766;37.672;2023-06-24T08:24:17;99373.22;;;19.57;66.56
61906;BME280;47863;55.766;37.672;2023-06-24T08:26:43;99363.88;;;19.53;66.53
61906;BME280;47863;55.766;37.672;2023-06-24T08:29:08;99377.44;;;19.72;66.57
61906;BME280;47863;55.766;37.672;2023-06-24T08:31:34;99372.75;;;19.79;66.22
61906;BME280;47863;55.766;37.672;2023-06-24T08:33:59;99387.75;;;19.81;66.45
61906;BME280;47863;55.766;37.672;2023-06-24T08:36:28;99375.53;;;19.72;65.98
61906;BME280;47863;55.766;37.672;2023-06-24T08:38:54;99373.56;;;19.79;66.28
61906;BME280;47863;55.766;37.672;2023-06-24T08:41:20;99382.41;;;19.75;66.38
61906;BME280;47863;55.766;37.672;2023-06-24T08:43:47;99404.41;;;19.85;66.13
61906;BME280;47863;55.766;37.672;2023-06-24T08:46:13;99394.22;;;19.80;66.10
61906;BME280;47863;55.766;37.672;2023-06-24T08:48:42;99405.09;;;19.80;66.29
61906;BME280;47863;55.766;37.672;2023-06-24T08:51:11;99382.94;;;19.65;66.20
61906;BME280;47863;55.766;37.672;2023-06-24T08:53:42;99403.31;;;19.74;66.36
61906;BME280;47863;55.766;37.672;2023-06-24T08:56:09;99390.25;;;19.65;66.36
61906;BME280;47863;55.766;37.672;2023-06-24T08:58:35;99406.09;;;19.68;66.34
61906;BME280;47863;55.766;37.672;2023-06-24T09:01:02;99386.28;;;19.49;66.36
61906;BME280;47863;55.766;37.672;2023-06-24T09:03:28;99420.38;;;19.63;66.47
61906;BME280;47863;55.766;37.672;2023-06-24T09:05:53;99407.84;;;19.62;66.49
61906;BME280;47863;55.766;37.672;2023-06-24T09:08:19;99385.28;;;19.43;66.73
61906;BME280;47863;55.766;37.672;2023-06-24T09:10:53;99418.69;;;19.62;66.49
61906;BME280;47863;55.766;37.672;2023-06-24T09:13:19;99423.91;;;19.64;66.44
61906;BME280;47863;55.766;37.672;2023-06-24T09:15:45;99423.53;;;19.60;66.43
61906;BME280;47863;55.766;37.672;2023-06-24T09:18:11;99423.44;;;19.67;66.33
61906;BME280;47863;55.766;37.672;2023-06-24T09:20:41;99427.59;;;19.69;66.50
61906;BME280;47863;55.766;37.672;2023-06-24T09:23:10;99438.47;;;19.69;66.26
61906;BME280;47863;55.766;37.672;2023-06-24T09:25:36;99431.06;;;19.76;66.21
61906;BME280;47863;55.766;37.672;2023-06-24T09:28:02;99429.09;;;19.84;66.15
61906;BME280;47863;55.766;37.672;2023-06-24T09:30:28;99439.53;;;19.87;65.84
61906;BME280;47863;55.766;37.672;2023-06-24T09:32:55;99433.50;;;19.85;65.75
61906;BME280;47863;55.766;37.672;2023-06-24T09:35:25;99411.16;;;19.64;66.17
61906;BME280;47863;55.766;37.672;2023-06-24T09:37:56;99446.41;;;19.71;66.22
61906;BME280;47863;55.766;37.672;2023-06-24T09:40:24;99432.81;;;19.52;66.38
61906;BME280;47863;55.766;37.672;2023-06-24T09:42:55;99470.53;;;19.60;66.50
61906;BME280;47863;55.766;37.672;2023-06-24T09:45:21;99470.63;;;19.54;66.57
61906;BME280;47863;55.766;37.672;2023-06-24T09:47:47;99460.13;;;19.39;66.59
61906;BME280;47863;55.766;37.672;2023-06-24T09:50:12;99475.63;;;19.38;66.79
61906;BME280;47863;55.766;37.672;2023-06-24T09:52:38;99475.31;;;19.28;66.87
61906;BME280;47863;55.766;37.672;2023-06-24T09:55:05;99457.97;;;19.11;66.79
61906;BME280;47863;55.766;37.672;2023-06-24T09:57:33;99484.97;;;19.24;66.96
61906;BME280;47863;55.766;37.672;2023-06-24T10:00:00;99476.53;;;19.14;67.15
61906;BME280;47863;55.766;37.672;2023-06-24T10:02:30;99492.13;;;19.18;66.89
61906;BME280;47863;55.766;37.672;2023-06-24T10:04:59;99464.72;;;19.01;67.01
61906;BME280;47863;55.766;37.672;2023-06-24T10:07:25;99490.00;;;19.20;66.82
61906;BME280;47863;55.766;37.672;2023-06-24T10:09:53;99463.78;;;19.14;66.61
61906;BME280;47863;55.766;37.672;2023-06-24T10:12:19;99474.56;;;19.21;66.73
61906;BME280;47863;55.766;37.672;2023-06-24T10:14:45;99491.31;;;19.36;66.67
61906;BME280;47863;55.766;37.672;2023-06-24T10:17:11;99494.50;;;19.33;66.47
61906;BME280;47863;55.766;37.672;2023-06-24T10:19:38;99492.44;;;19.29;66.55
61906;BME280;47863;55.766;37.672;2023-06-24T10:22:10;99507.09;;;19.28;66.74
61906;BME280;47863;55.766;37.672;2023-06-24T10:24:38;99494.25;;;19.16;66.92
61906;BME280;47863;55.766;37.672;2023-06-24T10:27:14;99511.31;;;19.24;66.82
61906;BME280;47863;55.766;37.672;2023-06-24T10:29:45;99492.84;;;19.07;67.16
61906;BME280;47863;55.766;37.672;2023-06-24T10:32:10;99515.34;;;19.14;66.84
61906;BME280;47863;55.766;37.672;2023-06-24T10:37:08;99520.78;;;19.33;66.82
61906;BME280;47863;55.766;37.672;2023-06-24T10:47:32;99523.44;;;20.55;64.58
61906;BME280;47863;55.766;37.672;2023-06-24T10:49:57;99521.38;;;20.81;64.70
61906;BME280;47863;55.766;37.672;2023-06-24T10:52:23;99519.63;;;20.98;64.27
61906;BME280;47863;55.766;37.672;2023-06-24T10:54:51;99517.72;;;21.11;63.96
61906;BME280;47863;55.766;37.672;2023-06-24T10:57:21;99521.41;;;21.16;63.20
61906;BME280;47863;55.766;37.672;2023-06-24T10:59:48;99532.41;;;21.22;63.95
61906;BME280;47863;55.766;37.672;2023-06-24T11:02:16;99507.19;;;21.03;64.04
61906;BME280;47863;55.766;37.672;2023-06-24T11:04:53;99544.03;;;21.05;63.23
61906;BME280;47863;55.766;37.672;2023-06-24T11:07:24;99534.31;;;20.86;64.21
61906;BME280;47863;55.766;37.672;2023-06-24T11:09:51;99527.66;;;20.82;64.35
61906;BME280;47863;55.766;37.672;2023-06-24T11:12:18;99533.22;;;20.87;64.65
61906;BME280;47863;55.766;37.672;2023-06-24T11:14:44;99528.00;;;20.85;64.31
61906;BME280;47863;55.766;37.672;2023-06-24T11:17:09;99542.81;;;21.13;63.86
61906;BME280;47863;55.766;37.672;2023-06-24T11:19:35;99536.31;;;21.14;63.62
61906;BME280;47863;55.766;37.672;2023-06-24T11:22:07;99547.25;;;21.49;63.41
61906;BME280;47863;55.766;37.672;2023-06-24T11:24:33;99537.94;;;21.74;62.54
61906;BME280;47863;55.766;37.672;2023-06-24T11:26:59;99530.88;;;22.02;62.03
61906;BME280;47863;55.766;37.672;2023-06-24T11:29:28;99544.22;;;22.27;61.46
61906;BME280;47863;55.766;37.672;2023-06-24T11:31:54;99560.59;;;22.72;61.18
61906;BME280;47863;55.766;37.672;2023-06-24T11:34:21;99553.91;;;23.14;60.40
61906;BME280;47863;55.766;37.672;2023-06-24T11:36:48;99545.50;;;23.76;59.58
61906;BME280;47863;55.766;37.672;2023-06-24T11:39:26;99552.53;;;24.39;57.64
61906;BME280;47863;55.766;37.672;2023-06-24T11:41:52;99567.75;;;24.79;57.52
61906;BME280;47863;55.766;37.672;2023-06-24T11:44:23;99560.13;;;24.86;57.68
61906;BME280;47863;55.766;37.672;2023-06-24T11:46:49;99562.84;;;24.81;57.81
61906;BME280;47863;55.766;37.672;2023-06-24T11:49:15;99557.28;;;24.70;57.82
61906;BME280;47863;55.766;37.672;2023-06-24T11:51:50;99558.50;;;24.58;57.54
61906;BME280;47863;55.766;37.672;2023-06-24T11:54:17;99561.22;;;24.30;58.34
61906;BME280;47863;55.766;37.672;2023-06-24T11:56:50;99567.53;;;24.09;58.51
61906;BME280;47863;55.766;37.672;2023-06-24T11:59:20;99560.34;;;23.81;58.49
61906;BME280;47863;55.766;37.672;2023-06-24T12:01:57;99570.81;;;23.67;58.41
61906;BME280;47863;55.766;37.672;2023-06-24T12:04:32;99572.25;;;23.52;58.53
61906;BME280;47863;55.766;37.672;2023-06-24T12:06:59;99561.91;;;23.38;58.91
61906;BME280;47863;55.766;37.672;2023-06-24T12:09:25;99566.00;;;23.35;58.54
61906;BME280;47863;55.766;37.672;2023-06-24T12:11:52;99573.53;;;23.28;58.65
61906;BME280;47863;55.766;37.672;2023-06-24T12:14:18;99573.03;;;22.97;58.82
61906;BME280;47863;55.766;37.672;2023-06-24T12:16:44;99581.84;;;22.70;59.14
61906;BME280;47863;55.766;37.672;2023-06-24T12:19:10;99570.28;;;22.34;59.65
61906;BME280;47863;55.766;37.672;2023-06-24T12:21:37;99586.31;;;22.19;59.80
61906;BME280;47863;55.766;37.672;2023-06-24T12:24:04;99578.53;;;21.99;59.79
61906;BME280;47863;55.766;37.672;2023-06-24T12:26:31;99588.13;;;22.02;59.87
61906;BME280;47863;55.766;37.672;2023-06-24T12:28:58;99596.47;;;21.95;59.74
61906;BME280;47863;55.766;37.672;2023-06-24T12:31:24;99566.16;;;21.68;59.75
61906;BME280;47863;55.766;37.672;2023-06-24T12:33:50;99597.81;;;21.81;59.65
61906;BME280;47863;55.766;37.672;2023-06-24T12:36:20;99585.59;;;21.71;59.79
61906;BME280;47863;55.766;37.672;2023-06-24T12:38:46;99590.69;;;21.79;59.35
61906;BME280;47863;55.766;37.672;2023-06-24T12:41:12;99597.06;;;21.97;59.42
61906;BME280;47863;55.766;37.672;2023-06-24T12:43:37;99592.63;;;22.20;58.68
61906;BME280;47863;55.766;37.672;2023-06-24T12:46:03;99603.03;;;22.34;58.71
61906;BME280;47863;55.766;37.672;2023-06-24T12:48:29;99574.56;;;22.30;58.42
61906;BME280;47863;55.766;37.672;2023-06-24T12:50:54;99597.69;;;22.40;58.40
61906;BME280;47863;55.766;37.672;2023-06-24T12:53:20;99596.50;;;22.24;58.71
61906;BME280;47863;55.766;37.672;2023-06-24T12:55:46;99598.69;;;22.10;58.87
61906;BME280;47863;55.766;37.672;2023-06-24T12:58:14;99588.75;;;21.92;59.09
61906;BME280;47863;55.766;37.672;2023-06-24T13:00:40;99604.06;;;21.81;59.05
61906;BME280;47863;55.766;37.672;2023-06-24T13:03:06;99608.97;;;21.55;59.65
61906;BME280;47863;55.766;37.672;2023-06-24T13:05:31;99599.94;;;21.31;59.94
61906;BME280;47863;55.766;37.672;2023-06-24T13:07:57;99600.00;;;21.13;60.27